Mechanicsville, Pennsylvania
Current Conditions -  °F | °C
As of 11:54 AM on Friday 28 Nov 2014 (Local Time) from KDYL Reporting Station
Scattered Clouds Scattered Clouds  
Wind Chill: 22°   Ceiling: Unl
Heat Index: 32°   Visibility: 10mi
Dew Point: 16°   Wind: 14mph
Humidity: 52%   Direction: 330°NNW
Pressure: 30.19"   Gusts: 22mph
Location:  40.34°N, 75.06°W
Report Text: KDYL 281654Z AUTO 33012G19KT 10SM SCT046 00/M09 A3019 RMK AO2 SLP232 T00001089 $
Loading
Personal Weather Stations






























Interactive Weather Map New forecast layout! Learn more

10-Day Weather Forecast

Advertisements
Track Severe Weather on mobile